createdAt,value
2017-05-24T00:00:16.475Z,0
2017-05-24T00:01:26.745Z,0
2017-05-24T00:02:36.746Z,0
2017-05-24T00:03:47.027Z,0
2017-05-24T00:04:57.005Z,0
2017-05-24T00:06:07.227Z,0
2017-05-24T00:07:17.504Z,0
2017-05-24T00:08:27.477Z,0
2017-05-24T00:09:37.817Z,0
2017-05-24T00:10:48.099Z,0
2017-05-24T00:11:58.632Z,0
2017-05-24T00:13:08.924Z,0
2017-05-24T00:14:19.203Z,0
2017-05-24T00:15:29.486Z,0
2017-05-24T00:16:39.452Z,0
2017-05-24T00:17:49.361Z,0
2017-05-24T00:18:59.649Z,0
2017-05-24T00:20:09.930Z,0
2017-05-24T00:21:20.214Z,0
2017-05-24T00:22:30.506Z,0
2017-05-24T00:23:40.422Z,0
2017-05-24T00:24:50.389Z,0
2017-05-24T00:26:00.672Z,0
2017-05-24T00:27:10.955Z,0
2017-05-24T00:28:21.234Z,0
2017-05-24T00:29:31.452Z,0
2017-05-24T00:30:41.429Z,0
2017-05-24T00:31:51.711Z,0
2017-05-24T00:33:01.988Z,0
2017-05-24T00:34:12.565Z,0
2017-05-24T00:35:23.102Z,0
2017-05-24T00:36:33.380Z,0
2017-05-24T00:37:43.353Z,0
2017-05-24T00:38:53.637Z,0
2017-05-24T00:40:03.622Z,0
2017-05-24T00:41:14.152Z,0
2017-05-24T00:42:24.431Z,0
2017-05-24T00:43:34.398Z,0
2017-05-24T00:44:44.691Z,0
2017-05-24T00:45:54.980Z,0
2017-05-24T00:47:05.509Z,0
2017-05-24T00:48:15.489Z,0
2017-05-24T00:49:25.781Z,0
2017-05-24T00:50:35.808Z,0
2017-05-24T00:51:46.083Z,0
2017-05-24T00:52:56.636Z,0
2017-05-24T00:54:06.920Z,0
2017-05-24T00:55:17.493Z,0
2017-05-24T00:56:27.466Z,0
2017-05-24T00:57:37.437Z,0
2017-05-24T00:58:47.658Z,0
2017-05-24T00:59:57.623Z,0
2017-05-24T01:01:07.592Z,0
2017-05-24T01:02:17.247Z,0
2017-05-24T01:03:27.532Z,0
2017-05-24T01:04:38.056Z,0
2017-05-24T01:05:48.356Z,0
2017-05-24T01:06:58.636Z,0
2017-05-24T01:08:08.921Z,0
2017-05-24T01:09:18.886Z,0
2017-05-24T01:10:29.410Z,0
2017-05-24T01:11:39.697Z,0
2017-05-24T01:12:49.687Z,0
2017-05-24T01:14:00.051Z,0
2017-05-24T01:15:10.343Z,0
2017-05-24T01:16:20.877Z,0
2017-05-24T01:17:31.151Z,0
2017-05-24T01:18:41.435Z,0
2017-05-24T01:19:51.721Z,0
2017-05-24T01:21:02.006Z,0
2017-05-24T01:22:12.531Z,0
2017-05-24T01:23:22.821Z,0
2017-05-24T01:24:32.806Z,0
2017-05-24T01:25:43.081Z,0
2017-05-24T01:26:53.356Z,0
2017-05-24T01:28:03.589Z,0
2017-05-24T01:29:13.871Z,0
2017-05-24T01:30:24.149Z,0
2017-05-24T01:31:34.477Z,0
2017-05-24T01:32:44.765Z,0
2017-05-24T01:33:55.311Z,0
2017-05-24T01:35:05.597Z,0
2017-05-24T01:36:15.571Z,0
2017-05-24T01:37:25.852Z,0
2017-05-24T01:38:35.832Z,0
2017-05-24T01:39:46.052Z,0
2017-05-24T01:40:56.337Z,0
2017-05-24T01:42:06.610Z,0
2017-05-24T01:43:16.937Z,0
2017-05-24T01:44:26.909Z,0
2017-05-24T01:45:37.453Z,0
2017-05-24T01:46:47.108Z,0
2017-05-24T01:47:57.393Z,0
2017-05-24T01:49:07.354Z,0
2017-05-24T01:50:17.332Z,0
2017-05-24T01:51:27.550Z,0
2017-05-24T01:52:37.827Z,0
2017-05-24T01:53:48.110Z,0
2017-05-24T01:54:58.399Z,0
2017-05-24T01:56:08.685Z,0
2017-05-24T01:57:19.221Z,0
2017-05-24T01:58:29.503Z,0
2017-05-24T01:59:39.475Z,0
2017-05-24T02:00:49.758Z,0
2017-05-24T02:01:59.721Z,0
2017-05-24T02:03:10.275Z,0
2017-05-24T02:04:20.556Z,0
2017-05-24T02:05:30.849Z,0
2017-05-24T02:06:41.124Z,0
2017-05-24T02:07:50.780Z,0
2017-05-24T02:09:01.061Z,0
2017-05-24T02:10:11.043Z,0
2017-05-24T02:11:21.324Z,0
2017-05-24T02:12:31.290Z,0
2017-05-24T02:13:41.263Z,0
2017-05-24T02:14:51.477Z,0
2017-05-24T02:16:01.453Z,0
2017-05-24T02:17:11.733Z,0
2017-05-24T02:18:22.020Z,0
2017-05-24T02:19:32.295Z,0
2017-05-24T02:20:42.834Z,0
2017-05-24T02:21:53.113Z,0
2017-05-24T02:23:03.408Z,0
2017-05-24T02:24:13.691Z,0
2017-05-24T02:25:23.659Z,0
2017-05-24T02:26:34.240Z,0
2017-05-24T02:27:44.531Z,0
2017-05-24T02:28:54.816Z,4
2017-05-24T02:30:04.800Z,4
2017-05-24T02:31:15.084Z,0
2017-05-24T02:32:25.610Z,4
2017-05-24T02:33:35.883Z,4
2017-05-24T02:34:46.164Z,4
2017-05-24T02:35:56.135Z,4
2017-05-24T02:37:06.418Z,4
2017-05-24T02:38:16.329Z,4
2017-05-24T02:39:25.985Z,8
2017-05-24T02:40:35.948Z,8
2017-05-24T02:41:46.228Z,8
2017-05-24T02:42:56.198Z,8
2017-05-24T02:44:06.730Z,8
2017-05-24T02:45:16.691Z,8
2017-05-24T02:46:26.967Z,12
2017-05-24T02:47:37.252Z,12
2017-05-24T02:48:47.541Z,8
2017-05-24T02:49:58.072Z,12
2017-05-24T02:51:08.365Z,12
2017-05-24T02:52:18.650Z,12
2017-05-24T02:53:28.937Z,20
2017-05-24T02:54:39.226Z,24
2017-05-24T02:55:49.135Z,24
2017-05-24T02:56:59.116Z,32
2017-05-24T02:58:09.081Z,32
2017-05-24T02:59:19.101Z,40
2017-05-24T03:00:29.065Z,40
2017-05-24T03:01:39.605Z,40
2017-05-24T03:02:49.895Z,48
2017-05-24T03:04:00.177Z,36
2017-05-24T03:05:10.145Z,48
2017-05-24T03:06:20.429Z,52
2017-05-24T03:07:30.958Z,52
2017-05-24T03:08:41.235Z,60
2017-05-24T03:09:51.520Z,80
2017-05-24T03:11:01.806Z,88
2017-05-24T03:12:12.075Z,88
2017-05-24T03:13:22.609Z,84
2017-05-24T03:14:32.591Z,96
2017-05-24T03:15:42.896Z,104
2017-05-24T03:16:53.192Z,84
2017-05-24T03:18:03.480Z,88
2017-05-24T03:19:14.007Z,96
2017-05-24T03:20:24.295Z,116
2017-05-24T03:21:34.582Z,140
2017-05-24T03:22:44.859Z,148
2017-05-24T03:23:54.827Z,156
2017-05-24T03:25:05.367Z,176
2017-05-24T03:26:15.725Z,216
2017-05-24T03:27:26.014Z,224
2017-05-24T03:28:35.978Z,152
2017-05-24T03:29:45.950Z,144
2017-05-24T03:30:56.493Z,168
2017-05-24T03:32:06.456Z,164
2017-05-24T03:33:16.428Z,164
2017-05-24T03:34:26.709Z,164
2017-05-24T03:35:36.985Z,120
2017-05-24T03:36:47.513Z,140
2017-05-24T03:37:57.807Z,204
2017-05-24T03:39:08.087Z,208
2017-05-24T03:40:18.376Z,200
2017-05-24T03:41:28.340Z,176
2017-05-24T03:42:38.861Z,196
2017-05-24T03:43:48.844Z,200
2017-05-24T03:44:59.155Z,176
2017-05-24T03:46:09.442Z,216
2017-05-24T03:47:19.726Z,168
2017-05-24T03:48:30.270Z,136
2017-05-24T03:49:40.558Z,128
2017-05-24T03:50:50.831Z,128
2017-05-24T03:52:00.826Z,144
2017-05-24T03:53:11.114Z,128
2017-05-24T03:54:21.334Z,116
2017-05-24T03:55:31.339Z,128
2017-05-24T03:56:41.311Z,140
2017-05-24T03:57:51.590Z,192
2017-05-24T03:59:01.880Z,216
2017-05-24T04:00:12.406Z,208
2017-05-24T04:01:22.680Z,240
2017-05-24T04:02:32.663Z,268
2017-05-24T04:03:42.950Z,288
2017-05-24T04:04:52.608Z,248
2017-05-24T04:06:03.149Z,292
2017-05-24T04:07:13.124Z,304
2017-05-24T04:08:23.408Z,300
2017-05-24T04:09:33.704Z,324
2017-05-24T04:10:43.988Z,312
2017-05-24T04:11:54.530Z,280
2017-05-24T04:13:04.819Z,324
2017-05-24T04:14:15.108Z,356
2017-05-24T04:15:25.080Z,380
2017-05-24T04:16:35.355Z,420
2017-05-24T04:17:45.943Z,424
2017-05-24T04:18:56.227Z,516
2017-05-24T04:20:06.512Z,652
2017-05-24T04:21:16.791Z,624
2017-05-24T04:22:27.064Z,608
2017-05-24T04:23:37.596Z,496
2017-05-24T04:24:47.875Z,532
2017-05-24T04:25:58.154Z,560
2017-05-24T04:27:08.444Z,484
2017-05-24T04:28:18.419Z,476
2017-05-24T04:29:28.950Z,536
2017-05-24T04:30:39.307Z,508
2017-05-24T04:31:49.594Z,580
2017-05-24T04:32:59.882Z,536
2017-05-24T04:34:10.154Z,736
2017-05-24T04:35:20.689Z,744
2017-05-24T04:36:30.964Z,740
2017-05-24T04:37:41.251Z,636
2017-05-24T04:38:51.220Z,636
2017-05-24T04:40:01.517Z,620
2017-05-24T04:41:12.051Z,608
2017-05-24T04:42:22.325Z,536
2017-05-24T04:43:32.620Z,472
2017-05-24T04:44:42.593Z,456
2017-05-24T04:45:52.256Z,440
2017-05-24T04:47:02.807Z,416
2017-05-24T04:48:13.098Z,416
2017-05-24T04:49:23.386Z,408
2017-05-24T04:50:33.657Z,428
2017-05-24T04:51:43.622Z,440
2017-05-24T04:52:53.845Z,356
2017-05-24T04:54:04.128Z,460
2017-05-24T04:55:14.411Z,424
2017-05-24T04:56:24.688Z,544
2017-05-24T04:57:34.648Z,552
2017-05-24T04:58:45.174Z,512
2017-05-24T04:59:55.455Z,608
2017-05-24T05:01:05.748Z,572
2017-05-24T05:02:15.716Z,444
2017-05-24T05:03:25.998Z,520
2017-05-24T05:04:36.221Z,604
2017-05-24T05:05:46.199Z,564
2017-05-24T05:06:56.483Z,648
2017-05-24T05:08:05.840Z,652
2017-05-24T05:09:16.127Z,688
2017-05-24T05:10:26.664Z,596
2017-05-24T05:11:36.632Z,736
2017-05-24T05:12:46.919Z,712
2017-05-24T05:13:57.210Z,740
2017-05-24T05:15:07.489Z,776
2017-05-24T05:16:17.712Z,800
2017-05-24T05:17:27.994Z,560
2017-05-24T05:18:38.298Z,592
2017-05-24T05:19:48.583Z,572
2017-05-24T05:20:58.570Z,648
2017-05-24T05:22:08.791Z,644
2017-05-24T05:23:19.069Z,632
2017-05-24T05:24:29.346Z,600
2017-05-24T05:25:39.637Z,728
2017-05-24T05:26:49.915Z,632
2017-05-24T05:28:00.140Z,664
2017-05-24T05:29:10.431Z,464
2017-05-24T05:30:20.421Z,408
2017-05-24T05:31:30.389Z,428
2017-05-24T05:32:40.358Z,560
2017-05-24T05:33:50.589Z,640
2017-05-24T05:35:00.877Z,760
2017-05-24T05:36:11.165Z,540
2017-05-24T05:37:21.442Z,596
2017-05-24T05:38:31.409Z,544
2017-05-24T05:39:41.619Z,568
2017-05-24T05:40:51.600Z,604
2017-05-24T05:42:01.887Z,444
2017-05-24T05:43:11.860Z,488
2017-05-24T05:44:22.151Z,572
2017-05-24T05:45:32.388Z,636
2017-05-24T05:46:42.671Z,624
2017-05-24T05:47:52.648Z,824
2017-05-24T05:49:02.938Z,632
2017-05-24T05:50:12.919Z,620
2017-05-24T05:51:23.205Z,716
2017-05-24T05:52:33.170Z,744
2017-05-24T05:53:43.452Z,632
2017-05-24T05:54:53.428Z,568
2017-05-24T05:56:03.717Z,668
2017-05-24T05:57:14.252Z,780
2017-05-24T05:58:24.538Z,676
2017-05-24T05:59:34.523Z,784
2017-05-24T06:00:44.808Z,660
2017-05-24T06:01:55.090Z,788
2017-05-24T06:03:05.627Z,804
2017-05-24T06:04:15.312Z,656
2017-05-24T06:05:25.657Z,592
2017-05-24T06:06:35.957Z,564
2017-05-24T06:07:46.236Z,712
2017-05-24T06:08:56.469Z,564
2017-05-24T06:10:06.762Z,532
2017-05-24T06:11:16.724Z,480
2017-05-24T06:12:27.004Z,648
2017-05-24T06:13:36.976Z,572
2017-05-24T06:14:47.498Z,508
2017-05-24T06:15:57.494Z,604
2017-05-24T06:17:06.843Z,600
2017-05-24T06:18:16.827Z,632
2017-05-24T06:19:27.264Z,712
2017-05-24T06:20:37.500Z,768
2017-05-24T06:21:47.781Z,704
2017-05-24T06:22:58.056Z,748
2017-05-24T06:24:08.032Z,812
2017-05-24T06:25:18.026Z,920
2017-05-24T06:26:28.551Z,828
2017-05-24T06:27:38.835Z,948
2017-05-24T06:28:48.200Z,968
2017-05-24T06:29:58.481Z,876
2017-05-24T06:31:08.773Z,912
2017-05-24T06:32:19.311Z,1192
2017-05-24T06:33:29.281Z,1288
2017-05-24T06:34:39.251Z,1352
2017-05-24T06:35:49.233Z,1408
2017-05-24T06:36:59.517Z,1460
2017-05-24T06:38:10.049Z,1624
2017-05-24T06:39:20.335Z,1532
2017-05-24T06:40:30.007Z,1480
2017-05-24T06:41:40.300Z,1620
2017-05-24T06:42:50.583Z,1656
2017-05-24T06:44:00.497Z,1712
2017-05-24T06:45:10.471Z,1536
2017-05-24T06:46:20.464Z,1584
2017-05-24T06:47:30.429Z,1588
2017-05-24T06:48:40.711Z,1448
2017-05-24T06:49:50.941Z,1364
2017-05-24T06:51:01.222Z,1284
2017-05-24T06:52:11.504Z,1340
2017-05-24T06:53:21.797Z,1332
2017-05-24T06:54:31.770Z,1452
2017-05-24T06:55:42.311Z,1484
2017-05-24T06:56:52.587Z,1380
2017-05-24T06:58:02.872Z,1308
2017-05-24T06:59:13.168Z,1288
2017-05-24T07:00:23.134Z,1336
2017-05-24T07:01:33.660Z,1240
2017-05-24T07:02:43.953Z,1292
2017-05-24T07:03:54.252Z,1340
2017-05-24T07:05:04.233Z,1572
2017-05-24T07:06:14.517Z,1656
2017-05-24T07:07:25.046Z,1600
2017-05-24T07:08:34.728Z,1764
2017-05-24T07:09:45.018Z,2100
2017-05-24T07:10:54.993Z,2948
2017-05-24T07:12:05.291Z,3776
2017-05-24T07:13:15.837Z,3944
2017-05-24T07:14:26.143Z,3916
2017-05-24T07:15:35.812Z,3596
2017-05-24T07:16:46.101Z,3484
2017-05-24T07:17:56.089Z,3928
2017-05-24T07:19:06.626Z,4184
2017-05-24T07:20:16.912Z,4192
2017-05-24T07:21:27.193Z,4176
2017-05-24T07:22:37.481Z,4040
2017-05-24T07:23:47.448Z,3844
2017-05-24T07:24:57.983Z,3560
2017-05-24T07:26:08.277Z,3184
2017-05-24T07:27:18.252Z,3284
2017-05-24T07:28:27.943Z,3428
2017-05-24T07:29:38.229Z,3904
2017-05-24T07:30:48.460Z,3984
2017-05-24T07:31:58.498Z,3956
2017-05-24T07:33:08.479Z,3364
2017-05-24T07:34:18.792Z,3400
2017-05-24T07:35:28.776Z,3436
2017-05-24T07:36:38.991Z,3512
2017-05-24T07:37:48.973Z,3544
2017-05-24T07:38:59.276Z,3336
2017-05-24T07:40:09.273Z,3904
2017-05-24T07:41:19.627Z,4144
2017-05-24T07:42:30.178Z,3708
2017-05-24T07:43:40.701Z,3436
2017-05-24T07:44:50.688Z,2212
2017-05-24T07:46:00.980Z,2496
2017-05-24T07:47:10.954Z,3708
2017-05-24T07:48:20.890Z,3716
2017-05-24T07:49:30.876Z,3928
2017-05-24T07:50:40.843Z,3856
2017-05-24T07:51:51.126Z,3596
2017-05-24T07:53:01.426Z,2824
2017-05-24T07:54:11.661Z,3156
2017-05-24T07:55:21.935Z,3628
2017-05-24T07:56:32.230Z,3260
2017-05-24T07:57:42.521Z,3468
2017-05-24T07:58:52.802Z,3408
2017-05-24T08:00:03.333Z,3276
2017-05-24T08:01:13.320Z,3140
2017-05-24T08:02:23.609Z,2860
2017-05-24T08:03:33.894Z,2580
2017-05-24T08:04:43.931Z,2604
2017-05-24T08:05:54.468Z,2868
2017-05-24T08:07:04.449Z,2920
2017-05-24T08:08:14.743Z,3040
2017-05-24T08:09:25.053Z,3092
2017-05-24T08:10:34.806Z,2716
2017-05-24T08:11:45.381Z,2580
2017-05-24T08:12:55.678Z,2568
2017-05-24T08:14:05.976Z,2512
2017-05-24T08:15:16.274Z,2384
2017-05-24T08:16:26.551Z,2200
2017-05-24T08:17:37.093Z,2076
2017-05-24T08:18:47.382Z,2116
2017-05-24T08:19:56.749Z,2072
2017-05-24T08:21:07.037Z,2060
2017-05-24T08:22:17.018Z,2104
2017-05-24T08:23:27.315Z,2248
2017-05-24T08:24:37.627Z,2404
2017-05-24T08:25:47.922Z,2568
2017-05-24T08:26:57.892Z,2640
2017-05-24T08:28:07.557Z,2856
2017-05-24T08:29:17.794Z,3060
2017-05-24T08:30:28.103Z,3304
2017-05-24T08:31:38.076Z,3232
2017-05-24T08:32:48.065Z,3020
2017-05-24T08:33:58.367Z,2660
2017-05-24T08:35:08.590Z,2800
2017-05-24T08:36:18.265Z,1872
2017-05-24T08:37:28.556Z,1224
2017-05-24T08:38:38.604Z,1436
2017-05-24T08:39:48.579Z,2300
2017-05-24T08:40:58.809Z,2284
2017-05-24T08:42:09.088Z,1424
2017-05-24T08:43:19.370Z,1192
2017-05-24T08:44:29.675Z,1564
2017-05-24T08:45:39.669Z,1872
2017-05-24T08:46:50.225Z,1292
2017-05-24T08:48:00.507Z,1364
2017-05-24T08:49:10.800Z,1660
2017-05-24T08:50:21.086Z,1916
2017-05-24T08:51:31.375Z,1972
2017-05-24T08:52:41.920Z,1920
2017-05-24T08:53:51.902Z,1504
2017-05-24T08:55:01.578Z,2864
2017-05-24T08:56:11.867Z,3824
2017-05-24T08:57:22.150Z,2960
2017-05-24T08:58:32.695Z,2828
2017-05-24T08:59:42.992Z,2616
2017-05-24T09:00:52.956Z,3040
2017-05-24T09:02:02.294Z,2400
2017-05-24T09:03:12.266Z,1396
2017-05-24T09:04:22.495Z,1840
2017-05-24T09:05:32.795Z,1924
2017-05-24T09:06:43.294Z,1916
2017-05-24T09:07:53.580Z,3080
2017-05-24T09:09:03.870Z,3776
2017-05-24T09:10:13.792Z,3820
2017-05-24T09:11:23.471Z,3964
2017-05-24T09:12:34.356Z,3928
2017-05-24T09:13:44.659Z,3264
2017-05-24T09:14:54.989Z,3776
2017-05-24T09:16:05.214Z,4532
2017-05-24T09:17:15.190Z,4340
2017-05-24T09:18:25.488Z,4576
2017-05-24T09:19:35.463Z,4988
2017-05-24T09:20:45.771Z,4816
2017-05-24T09:21:56.042Z,4408
2017-05-24T09:23:06.607Z,4088
2017-05-24T09:24:16.616Z,3560
2017-05-24T09:25:26.908Z,2564
2017-05-24T09:26:37.230Z,2964
2017-05-24T09:27:47.473Z,2832
2017-05-24T09:28:57.455Z,2652
2017-05-24T09:30:07.438Z,3128
2017-05-24T09:31:17.751Z,3448
2017-05-24T09:32:27.736Z,3624
2017-05-24T09:33:38.544Z,3144
2017-05-24T09:34:48.948Z,3072
2017-05-24T09:35:59.296Z,3400
2017-05-24T09:37:09.602Z,3120
2017-05-24T09:38:19.895Z,2676
2017-05-24T09:39:30.443Z,2452
2017-05-24T09:40:40.727Z,1912
2017-05-24T09:41:51.012Z,1748
2017-05-24T09:43:00.999Z,2080
2017-05-24T09:44:10.975Z,1996
2017-05-24T09:45:21.519Z,2200
2017-05-24T09:46:31.186Z,2700
2017-05-24T09:47:41.475Z,2972
2017-05-24T09:48:51.457Z,2512
2017-05-24T09:50:01.752Z,2312
2017-05-24T09:51:12.308Z,2528
2017-05-24T09:52:22.598Z,2500
2017-05-24T09:53:32.881Z,2460
2017-05-24T09:54:43.178Z,2012
2017-05-24T09:55:53.464Z,2260
2017-05-24T09:57:04.004Z,2628
2017-05-24T09:58:14.306Z,2564
2017-05-24T09:59:25.098Z,2120
2017-05-24T10:00:35.780Z,2460
2017-05-24T10:01:46.073Z,2196
2017-05-24T10:02:56.482Z,1976
2017-05-24T10:04:06.769Z,2280
2017-05-24T10:05:17.051Z,1896
2017-05-24T10:06:27.330Z,2572
2017-05-24T10:07:37.681Z,2172
2017-05-24T10:08:48.210Z,1816
2017-05-24T10:09:58.495Z,1492
2017-05-24T10:11:08.484Z,1364
2017-05-24T10:12:18.793Z,1060
2017-05-24T10:13:28.779Z,1232
2017-05-24T10:14:39.321Z,1148
2017-05-24T10:15:49.288Z,1576
2017-05-24T10:16:58.954Z,1700
2017-05-24T10:18:09.252Z,1604
2017-05-24T10:19:19.555Z,1756
2017-05-24T10:20:30.111Z,2428
2017-05-24T10:21:40.090Z,2972
2017-05-24T10:22:50.064Z,2848
2017-05-24T10:23:59.737Z,3256
2017-05-24T10:25:09.710Z,3148
2017-05-24T10:26:20.254Z,3112
2017-05-24T10:27:30.228Z,2820
2017-05-24T10:28:40.515Z,3476
2017-05-24T10:29:50.805Z,3768
2017-05-24T10:31:01.093Z,3236
2017-05-24T10:32:11.624Z,2856
2017-05-24T10:33:21.904Z,3000
2017-05-24T10:34:32.199Z,3344
2017-05-24T10:35:42.501Z,3596
2017-05-24T10:36:52.469Z,4064
2017-05-24T10:38:02.383Z,4384
2017-05-24T10:39:12.365Z,4600
2017-05-24T10:40:22.360Z,4680
2017-05-24T10:41:32.656Z,4748
2017-05-24T10:42:42.625Z,4776
2017-05-24T10:43:53.176Z,5020
2017-05-24T10:45:03.466Z,4768
2017-05-24T10:46:13.451Z,4464
2017-05-24T10:47:23.966Z,4320
2017-05-24T10:48:34.258Z,4224
2017-05-24T10:49:44.176Z,4824
2017-05-24T10:50:53.843Z,4692
2017-05-24T10:52:03.818Z,3240
2017-05-24T10:53:14.110Z,2948
2017-05-24T10:54:24.399Z,3084
2017-05-24T10:55:34.634Z,4108
2017-05-24T10:56:44.941Z,3576
2017-05-24T10:57:55.242Z,3984
2017-05-24T10:59:05.531Z,3444
2017-05-24T11:00:15.522Z,3288
2017-05-24T11:01:26.056Z,4176
2017-05-24T11:02:36.046Z,4284
2017-05-24T11:03:46.358Z,3952
2017-05-24T11:04:56.020Z,4096
2017-05-24T11:06:06.319Z,4008
2017-05-24T11:07:16.856Z,3184
2017-05-24T11:08:26.836Z,2824
2017-05-24T11:09:36.815Z,3528
2017-05-24T11:10:46.810Z,3700
2017-05-24T11:11:57.203Z,3388
2017-05-24T11:13:07.521Z,2916
2017-05-24T11:14:17.554Z,3152
2017-05-24T11:15:27.619Z,3172
2017-05-24T11:16:37.951Z,2948
2017-05-24T11:17:48.279Z,3264
2017-05-24T11:18:58.513Z,3404
2017-05-24T11:20:08.798Z,3168
2017-05-24T11:21:19.114Z,3052
2017-05-24T11:22:29.124Z,3300
2017-05-24T11:23:39.425Z,3452
2017-05-24T11:24:49.659Z,3276
2017-05-24T11:26:00.600Z,2936
2017-05-24T11:27:10.582Z,3364
2017-05-24T11:28:20.886Z,3536
2017-05-24T11:29:31.181Z,3804
2017-05-24T11:30:41.398Z,4268
2017-05-24T11:31:51.404Z,4396
2017-05-24T11:33:01.705Z,4336
2017-05-24T11:34:12.000Z,4036
2017-05-24T11:35:22.330Z,3880
2017-05-24T11:36:32.564Z,4492
2017-05-24T11:37:42.863Z,4684
2017-05-24T11:38:53.159Z,4452
2017-05-24T11:40:03.451Z,4464
2017-05-24T11:41:13.443Z,4832
2017-05-24T11:42:23.678Z,4868
2017-05-24T11:43:33.964Z,4420
2017-05-24T11:44:44.248Z,4100
2017-05-24T11:45:53.928Z,3296
2017-05-24T11:47:04.218Z,3300
2017-05-24T11:48:14.442Z,3592
2017-05-24T11:49:24.735Z,3940
2017-05-24T11:50:34.734Z,4348
2017-05-24T11:51:44.713Z,4624
2017-05-24T11:52:54.701Z,4584
2017-05-24T11:54:05.243Z,4224
2017-05-24T11:55:14.904Z,4440
2017-05-24T11:56:25.215Z,2788
2017-05-24T11:57:35.504Z,56
2017-05-24T11:58:45.789Z,60
2017-05-24T11:59:56.331Z,64
2017-05-24T12:01:06.625Z,64
2017-05-24T12:02:16.603Z,64
2017-05-24T12:03:26.907Z,64
2017-05-24T12:04:37.206Z,64
2017-05-24T12:05:47.746Z,64
2017-05-24T12:06:58.036Z,64
2017-05-24T12:08:08.327Z,72
2017-05-24T12:09:18.627Z,72
2017-05-24T12:10:28.607Z,64
2017-05-24T12:11:39.154Z,60
2017-05-24T12:12:49.454Z,60
2017-05-24T12:13:59.759Z,60
2017-05-24T12:15:10.053Z,60
2017-05-24T12:16:20.358Z,64
2017-05-24T12:17:30.921Z,64
2017-05-24T12:18:41.208Z,60
2017-05-24T12:19:51.497Z,60
2017-05-24T12:21:01.185Z,56
2017-05-24T12:22:11.475Z,52
2017-05-24T12:23:21.702Z,52
2017-05-24T12:24:31.683Z,52
2017-05-24T12:25:41.704Z,56
2017-05-24T12:26:51.986Z,56
2017-05-24T12:28:01.963Z,52
2017-05-24T12:29:12.201Z,48
2017-05-24T12:30:22.516Z,44
2017-05-24T12:31:32.804Z,40
2017-05-24T12:32:42.812Z,40
2017-05-24T12:33:53.105Z,44
2017-05-24T12:35:03.693Z,40
2017-05-24T12:36:13.980Z,44
2017-05-24T12:37:24.272Z,44
2017-05-24T12:38:34.257Z,44
2017-05-24T12:39:44.230Z,44
2017-05-24T12:40:54.773Z,40
2017-05-24T12:42:05.072Z,40
2017-05-24T12:43:15.366Z,40
2017-05-24T12:44:25.657Z,40
2017-05-24T12:45:35.954Z,40
2017-05-24T12:46:46.483Z,40
2017-05-24T12:47:56.787Z,40
2017-05-24T12:49:07.082Z,36
2017-05-24T12:50:17.370Z,40
2017-05-24T12:51:27.661Z,36
2017-05-24T12:52:38.204Z,32
2017-05-24T12:53:48.498Z,28
2017-05-24T12:54:58.808Z,28
2017-05-24T12:56:09.101Z,24
2017-05-24T12:57:19.082Z,24
2017-05-24T12:58:29.607Z,24
2017-05-24T12:59:39.909Z,28
2017-05-24T13:00:50.198Z,28
2017-05-24T13:02:00.494Z,32
2017-05-24T13:03:10.789Z,28
2017-05-24T13:04:21.325Z,32
2017-05-24T13:05:31.605Z,36
2017-05-24T13:06:41.573Z,32
2017-05-24T13:07:51.560Z,32
2017-05-24T13:09:01.851Z,28
2017-05-24T13:10:12.081Z,32
2017-05-24T13:11:22.360Z,28
2017-05-24T13:12:32.660Z,32
2017-05-24T13:13:42.966Z,32
2017-05-24T13:14:53.247Z,28
2017-05-24T13:16:03.803Z,28
2017-05-24T13:17:14.088Z,28
2017-05-24T13:18:24.377Z,28
2017-05-24T13:19:34.667Z,28
2017-05-24T13:20:44.954Z,32
2017-05-24T13:21:55.503Z,32
2017-05-24T13:23:05.854Z,28
2017-05-24T13:24:16.143Z,32
2017-05-24T13:25:26.431Z,36
2017-05-24T13:26:36.729Z,32
2017-05-24T13:27:47.264Z,32
2017-05-24T13:28:57.554Z,32
2017-05-24T13:30:07.539Z,32
2017-05-24T13:31:17.518Z,32
2017-05-24T13:32:27.820Z,28
2017-05-24T13:33:38.052Z,32
2017-05-24T13:34:47.719Z,32
2017-05-24T13:35:57.695Z,32
2017-05-24T13:37:07.978Z,32
2017-05-24T13:38:18.279Z,32
2017-05-24T13:39:29.270Z,32
2017-05-24T13:40:39.564Z,32
2017-05-24T13:41:49.549Z,32
2017-05-24T13:42:58.916Z,32
2017-05-24T13:44:08.895Z,32
2017-05-24T13:45:19.120Z,32
2017-05-24T13:46:29.409Z,32
2017-05-24T13:47:39.710Z,32
2017-05-24T13:48:49.993Z,32
2017-05-24T13:50:00.279Z,32
2017-05-24T13:51:10.511Z,32
2017-05-24T13:52:20.177Z,32
2017-05-24T13:53:30.473Z,32
2017-05-24T13:54:40.766Z,32
2017-05-24T13:55:51.042Z,32
2017-05-24T13:57:01.579Z,36
2017-05-24T13:58:11.868Z,36
2017-05-24T13:59:21.848Z,36
2017-05-24T14:00:32.158Z,36
2017-05-24T14:01:42.436Z,32
2017-05-24T14:02:52.982Z,32
2017-05-24T14:04:03.329Z,28
2017-05-24T14:05:13.308Z,28
2017-05-24T14:06:23.593Z,28
2017-05-24T14:07:33.885Z,32
2017-05-24T14:08:44.124Z,28
2017-05-24T14:09:54.418Z,28
2017-05-24T14:11:04.392Z,28
2017-05-24T14:12:14.679Z,28
2017-05-24T14:13:24.963Z,28
2017-05-24T14:14:35.529Z,24
2017-05-24T14:15:45.497Z,24
2017-05-24T14:16:55.171Z,20
2017-05-24T14:18:05.486Z,24
2017-05-24T14:19:15.775Z,24
2017-05-24T14:20:26.006Z,20
2017-05-24T14:21:36.287Z,20
2017-05-24T14:22:46.573Z,20
2017-05-24T14:23:56.869Z,24
2017-05-24T14:25:07.149Z,24
2017-05-24T14:26:17.700Z,24
2017-05-24T14:27:27.664Z,28
2017-05-24T14:28:37.646Z,24
2017-05-24T14:29:47.928Z,24
2017-05-24T14:30:58.211Z,24
2017-05-24T14:32:08.427Z,24
2017-05-24T14:33:18.084Z,24
2017-05-24T14:34:28.395Z,20
2017-05-24T14:35:38.388Z,20
2017-05-24T14:36:48.684Z,24
2017-05-24T14:37:59.223Z,20
2017-05-24T14:39:09.515Z,16
2017-05-24T14:40:19.583Z,20
2017-05-24T14:41:29.556Z,16
2017-05-24T14:42:39.538Z,20
2017-05-24T14:43:50.089Z,16
2017-05-24T14:45:00.376Z,16
2017-05-24T14:46:10.699Z,16
2017-05-24T14:47:20.980Z,20
2017-05-24T14:48:31.272Z,16
2017-05-24T14:49:41.495Z,16
2017-05-24T14:50:51.789Z,16
2017-05-24T14:52:01.762Z,16
2017-05-24T14:53:11.731Z,16
2017-05-24T14:54:22.026Z,16
2017-05-24T14:55:32.249Z,20
2017-05-24T14:56:42.251Z,16
2017-05-24T14:57:52.549Z,16
2017-05-24T14:59:02.843Z,16
2017-05-24T15:00:13.158Z,16
2017-05-24T15:01:23.378Z,16
2017-05-24T15:02:33.667Z,16
2017-05-24T15:03:43.959Z,16
2017-05-24T15:04:54.256Z,16
2017-05-24T15:06:04.541Z,16
2017-05-24T15:07:15.157Z,16
2017-05-24T15:08:25.455Z,16
2017-05-24T15:09:35.759Z,16
2017-05-24T15:10:46.047Z,16
2017-05-24T15:11:56.335Z,12
2017-05-24T15:13:06.873Z,12
2017-05-24T15:14:16.846Z,12
2017-05-24T15:15:27.125Z,12
2017-05-24T15:16:37.101Z,12
2017-05-24T15:17:46.769Z,12
2017-05-24T15:18:56.697Z,16
2017-05-24T15:20:06.985Z,12
2017-05-24T15:21:17.282Z,16
2017-05-24T15:22:27.273Z,16
2017-05-24T15:23:37.565Z,12
2017-05-24T15:24:48.120Z,16
2017-05-24T15:25:57.779Z,16
2017-05-24T15:27:08.065Z,16
2017-05-24T15:28:18.090Z,16
2017-05-24T15:29:28.093Z,16
2017-05-24T15:30:38.639Z,20
2017-05-24T15:31:48.928Z,20
2017-05-24T15:32:58.607Z,20
2017-05-24T15:34:08.691Z,20
2017-05-24T15:35:18.986Z,16
2017-05-24T15:36:29.544Z,20
2017-05-24T15:37:39.528Z,20
2017-05-24T15:38:49.819Z,20
2017-05-24T15:40:00.125Z,20
2017-05-24T15:41:10.107Z,20
2017-05-24T15:42:20.659Z,20
2017-05-24T15:43:30.638Z,16
2017-05-24T15:44:40.921Z,16
2017-05-24T15:45:51.207Z,16
2017-05-24T15:47:01.200Z,16
2017-05-24T15:48:11.742Z,20
2017-05-24T15:49:21.727Z,20
2017-05-24T15:50:32.006Z,20
2017-05-24T15:51:41.988Z,20
2017-05-24T15:52:52.299Z,20
2017-05-24T15:54:02.842Z,16
2017-05-24T15:55:13.139Z,20
2017-05-24T15:56:23.423Z,20
2017-05-24T15:57:33.755Z,20
2017-05-24T15:58:44.049Z,24
2017-05-24T15:59:54.593Z,24
2017-05-24T16:01:04.888Z,24
2017-05-24T16:02:14.869Z,28
2017-05-24T16:03:24.846Z,32
2017-05-24T16:04:34.520Z,32
2017-05-24T16:05:44.433Z,36
2017-05-24T16:06:54.725Z,32
2017-05-24T16:08:05.003Z,32
2017-05-24T16:09:15.292Z,36
2017-05-24T16:10:25.272Z,40
2017-05-24T16:11:35.492Z,40
2017-05-24T16:12:45.463Z,40
2017-05-24T16:13:55.435Z,40
2017-05-24T16:15:05.419Z,40
2017-05-24T16:16:15.707Z,40